createdAt,value
2017-09-03T00:02:18.586Z,10.30
2017-09-03T00:04:46.098Z,14.18
2017-09-03T00:07:13.718Z,11.95
2017-09-03T00:09:41.290Z,11.45
2017-09-03T00:12:08.816Z,12.35
2017-09-03T00:14:36.343Z,6.03
2017-09-03T00:17:03.881Z,7.12
2017-09-03T00:19:31.515Z,8.43
2017-09-03T00:21:59.060Z,12.27
2017-09-03T00:24:27.343Z,15.18
2017-09-03T00:26:54.907Z,10.60
2017-09-03T00:29:22.428Z,13.75
2017-09-03T00:31:50.858Z,13.38
2017-09-03T00:34:18.434Z,9.73
2017-09-03T00:36:45.970Z,13.13
2017-09-03T00:39:13.502Z,15.27
2017-09-03T00:41:41.053Z,12.88
2017-09-03T00:44:08.580Z,10.85
2017-09-03T00:46:36.121Z,9.35
2017-09-03T00:49:03.677Z,11.32
2017-09-03T00:51:31.208Z,9.70
2017-09-03T00:53:58.764Z,16.58
2017-09-03T00:56:26.340Z,16.55
2017-09-03T00:58:53.880Z,8.18
2017-09-03T01:01:21.398Z,9.95
2017-09-03T01:03:48.929Z,9.45
2017-09-03T01:06:16.461Z,11.12
2017-09-03T01:08:43.976Z,10.20
2017-09-03T01:11:11.515Z,9.88
2017-09-03T01:13:39.077Z,13.73
2017-09-03T01:16:06.620Z,11.70
2017-09-03T01:18:34.148Z,9.50
2017-09-03T01:21:01.706Z,19.85
2017-09-03T01:23:29.247Z,8.32
2017-09-03T01:25:56.781Z,12.05
2017-09-03T01:28:24.549Z,10.50
2017-09-03T01:30:52.104Z,13.25
2017-09-03T01:33:19.655Z,16.33
2017-09-03T01:35:47.741Z,14.05
2017-09-03T01:38:15.237Z,21.98
2017-09-03T01:40:43.294Z,16.80
2017-09-03T01:43:10.831Z,16.67
2017-09-03T01:45:38.366Z,17.25
2017-09-03T01:48:09.037Z,19.73
2017-09-03T01:50:37.193Z,18.33
2017-09-03T01:53:05.627Z,16.62
2017-09-03T01:55:33.147Z,18.60
2017-09-03T01:58:00.723Z,17.08
2017-09-03T02:00:28.288Z,21.62
2017-09-03T02:02:55.815Z,17.35
2017-09-03T02:05:23.356Z,18.98
2017-09-03T02:07:50.901Z,23.00
2017-09-03T02:10:18.438Z,15.32
2017-09-03T02:12:45.980Z,16.90
2017-09-03T02:15:13.543Z,19.80
2017-09-03T02:17:41.097Z,15.95
2017-09-03T02:20:08.786Z,21.98
2017-09-03T02:22:36.849Z,17.83
2017-09-03T02:25:04.333Z,19.73
2017-09-03T02:27:31.891Z,22.10
2017-09-03T02:29:59.449Z,18.45
2017-09-03T02:32:26.995Z,20.98
2017-09-03T02:34:54.562Z,17.00
2017-09-03T02:37:22.105Z,27.58
2017-09-03T02:39:49.645Z,19.50
2017-09-03T02:42:17.198Z,18.70
2017-09-03T02:44:44.741Z,20.77
2017-09-03T02:47:12.286Z,22.67
2017-09-03T02:49:39.847Z,26.45
2017-09-03T02:52:07.372Z,20.40
2017-09-03T02:54:34.902Z,28.15
2017-09-03T02:57:02.450Z,27.50
2017-09-03T02:59:29.971Z,21.70
2017-09-03T03:01:57.497Z,20.35
2017-09-03T03:04:25.049Z,29.52
2017-09-03T03:06:52.598Z,27.75
2017-09-03T03:09:20.170Z,24.00
2017-09-03T03:11:47.699Z,25.25
2017-09-03T03:14:15.219Z,25.12
2017-09-03T03:16:42.769Z,22.70
2017-09-03T03:19:10.302Z,27.30
2017-09-03T03:21:37.829Z,23.40
2017-09-03T03:24:05.394Z,27.87
2017-09-03T03:26:32.996Z,29.67
2017-09-03T03:29:00.532Z,23.85
2017-09-03T03:31:28.035Z,31.20
2017-09-03T03:33:55.603Z,20.83
2017-09-03T03:36:23.339Z,24.73
2017-09-03T03:38:50.869Z,23.38
2017-09-03T03:41:18.404Z,18.37
2017-09-03T03:43:45.955Z,16.52
2017-09-03T03:46:13.492Z,21.05
2017-09-03T03:48:41.021Z,22.70
2017-09-03T03:51:08.553Z,25.27
2017-09-03T03:53:36.040Z,21.67
2017-09-03T03:56:03.585Z,23.75
2017-09-03T03:58:31.126Z,24.08
2017-09-03T04:00:58.673Z,25.25
2017-09-03T04:03:26.394Z,25.80
2017-09-03T04:05:53.937Z,30.90
2017-09-03T04:08:21.464Z,25.45
2017-09-03T04:10:48.993Z,33.03
2017-09-03T04:13:16.657Z,24.45
2017-09-03T04:15:44.212Z,30.05
2017-09-03T04:18:11.807Z,24.77
2017-09-03T04:20:39.364Z,26.65
2017-09-03T04:23:06.930Z,22.90
2017-09-03T04:25:34.445Z,27.95
2017-09-03T04:28:02.010Z,24.92
2017-09-03T04:30:29.549Z,27.50
2017-09-03T04:32:57.077Z,26.27
2017-09-03T04:35:24.616Z,26.25
2017-09-03T04:37:52.153Z,28.95
2017-09-03T04:40:19.693Z,22.55
2017-09-03T04:42:47.248Z,21.65
2017-09-03T04:45:14.791Z,21.50
2017-09-03T04:47:42.337Z,18.73
2017-09-03T04:50:09.886Z,24.48
2017-09-03T04:52:37.421Z,24.35
2017-09-03T04:55:04.956Z,22.65
2017-09-03T04:57:32.489Z,18.92
2017-09-03T05:00:00.026Z,22.45
2017-09-03T05:02:27.557Z,20.40
2017-09-03T05:04:55.080Z,22.73
2017-09-03T05:07:22.641Z,22.05
2017-09-03T05:09:50.181Z,21.75
2017-09-03T05:12:17.722Z,21.45
2017-09-03T05:14:45.256Z,17.45
2017-09-03T05:17:12.813Z,24.63
2017-09-03T05:19:40.397Z,19.12
2017-09-03T05:22:07.919Z,18.10
2017-09-03T05:24:35.467Z,19.37
2017-09-03T05:27:03.022Z,18.55
2017-09-03T05:29:30.564Z,19.77
2017-09-03T05:31:58.048Z,17.45
2017-09-03T05:34:25.610Z,14.87
2017-09-03T05:36:53.161Z,20.35
2017-09-03T05:39:20.949Z,17.10
2017-09-03T05:41:48.483Z,19.23
2017-09-03T05:44:16.035Z,18.15
2017-09-03T05:46:43.525Z,17.10
2017-09-03T05:49:11.115Z,21.52
2017-09-03T05:51:38.967Z,22.25
2017-09-03T05:54:06.970Z,17.87
2017-09-03T05:56:34.533Z,24.70
2017-09-03T05:59:02.075Z,20.27
2017-09-03T06:01:29.653Z,29.75
2017-09-03T06:03:57.191Z,19.73
2017-09-03T06:06:24.733Z,17.98
2017-09-03T06:08:52.293Z,20.70
2017-09-03T06:11:19.861Z,26.12
2017-09-03T06:13:47.425Z,27.65
2017-09-03T06:16:15.005Z,21.75
2017-09-03T06:18:42.559Z,17.58
2017-09-03T06:21:10.081Z,16.35
2017-09-03T06:23:37.669Z,15.60
2017-09-03T06:26:05.409Z,17.00
2017-09-03T06:28:32.956Z,18.15
2017-09-03T06:31:00.522Z,22.10
2017-09-03T06:33:28.064Z,16.23
2017-09-03T06:35:55.616Z,13.32
2017-09-03T06:38:23.114Z,24.75
2017-09-03T06:40:50.694Z,15.60
2017-09-03T06:43:18.258Z,22.10
2017-09-03T06:45:45.850Z,17.00
2017-09-03T06:48:13.425Z,18.62
2017-09-03T06:50:40.945Z,15.90
2017-09-03T06:53:08.470Z,18.20
2017-09-03T06:55:36.038Z,16.37
2017-09-03T06:58:03.615Z,12.07
2017-09-03T07:00:31.216Z,13.13
2017-09-03T07:02:58.833Z,13.48
2017-09-03T07:05:26.440Z,20.75
2017-09-03T07:07:54.063Z,14.55
2017-09-03T07:10:21.636Z,19.83
2017-09-03T07:12:49.213Z,13.23
2017-09-03T07:15:16.825Z,21.52
2017-09-03T07:17:44.359Z,7.40
2017-09-03T07:20:11.868Z,7.07
2017-09-03T07:22:39.445Z,10.25
2017-09-03T07:25:07.028Z,13.55
2017-09-03T07:27:34.576Z,10.18
2017-09-03T07:30:02.160Z,8.25
2017-09-03T07:32:29.718Z,8.50
2017-09-03T07:34:57.291Z,6.28
2017-09-03T07:37:24.862Z,6.07
2017-09-03T07:39:52.422Z,9.85
2017-09-03T07:42:20.048Z,10.05
2017-09-03T07:44:47.568Z,4.70
2017-09-03T07:47:15.168Z,10.27
2017-09-03T07:49:42.768Z,5.57
2017-09-03T07:52:10.331Z,6.40
2017-09-03T07:54:37.926Z,5.78
2017-09-03T07:57:05.533Z,6.12
2017-09-03T07:59:33.141Z,5.25
2017-09-03T08:02:00.726Z,5.37
2017-09-03T08:04:29.111Z,4.00
2017-09-03T08:06:56.866Z,8.73
2017-09-03T08:09:24.457Z,8.93
2017-09-03T08:11:52.025Z,5.85
2017-09-03T08:14:19.625Z,4.07
2017-09-03T08:16:47.305Z,3.25
2017-09-03T08:19:16.268Z,7.43
2017-09-03T08:21:43.937Z,3.53
2017-09-03T08:24:11.530Z,9.68
2017-09-03T08:26:39.201Z,4.53
2017-09-03T08:29:06.789Z,8.65
2017-09-03T08:31:35.084Z,7.62
2017-09-03T08:34:02.692Z,6.93
2017-09-03T08:36:30.368Z,6.03
2017-09-03T08:38:58.004Z,8.35
2017-09-03T08:41:25.652Z,8.98
2017-09-03T08:43:53.440Z,6.50
2017-09-03T08:46:21.045Z,6.45
2017-09-03T08:48:48.643Z,5.03
2017-09-03T08:51:16.220Z,10.68
2017-09-03T08:53:43.783Z,9.02
2017-09-03T08:56:11.365Z,6.15
2017-09-03T08:58:39.012Z,6.50
2017-09-03T09:01:06.790Z,8.25
2017-09-03T09:03:34.494Z,7.25
2017-09-03T09:06:02.276Z,12.40
2017-09-03T09:08:30.821Z,6.00
2017-09-03T09:10:58.398Z,6.53
2017-09-03T09:13:25.977Z,6.22
2017-09-03T09:15:54.524Z,7.05
2017-09-03T09:18:22.535Z,9.23
2017-09-03T09:20:50.084Z,7.53
2017-09-03T09:23:17.697Z,6.35
2017-09-03T09:25:45.353Z,8.95
2017-09-03T09:28:13.014Z,9.80
2017-09-03T09:30:40.591Z,5.80
2017-09-03T09:33:08.241Z,8.00
2017-09-03T09:35:35.826Z,7.65
2017-09-03T09:38:04.329Z,6.20
2017-09-03T09:40:31.900Z,6.30
2017-09-03T09:42:59.592Z,6.25
2017-09-03T09:45:27.184Z,5.85
2017-09-03T09:47:54.832Z,12.70
2017-09-03T09:50:25.385Z,4.75
2017-09-03T09:52:53.151Z,7.55
2017-09-03T09:55:21.639Z,8.93
2017-09-03T09:57:49.352Z,4.75
2017-09-03T10:00:17.012Z,4.80
2017-09-03T10:02:46.713Z,10.20
2017-09-03T10:05:14.281Z,5.82
2017-09-03T10:07:42.801Z,5.45
2017-09-03T10:10:10.473Z,3.40
2017-09-03T10:12:38.104Z,4.30
2017-09-03T10:15:05.743Z,5.35
2017-09-03T10:17:33.353Z,5.47
2017-09-03T10:20:01.780Z,5.20
2017-09-03T10:22:29.504Z,5.35
2017-09-03T10:24:58.031Z,22.95
2017-09-03T10:27:25.665Z,5.70
2017-09-03T10:29:54.955Z,46.03
2017-09-03T10:32:22.596Z,39.38
2017-09-03T10:34:50.205Z,17.50
2017-09-03T10:37:17.959Z,7.32
2017-09-03T10:39:46.073Z,9.38
2017-09-03T10:42:13.847Z,4.07
2017-09-03T10:44:42.616Z,6.78
2017-09-03T10:47:10.214Z,7.68
2017-09-03T10:49:38.193Z,2.95
2017-09-03T10:52:06.100Z,3.25
2017-09-03T10:54:33.733Z,3.10
2017-09-03T10:57:01.452Z,4.70
2017-09-03T10:59:29.113Z,7.65
2017-09-03T11:01:56.748Z,4.80
2017-09-03T11:04:25.729Z,10.18
2017-09-03T11:06:53.628Z,5.65
2017-09-03T11:09:21.706Z,4.18
2017-09-03T11:11:50.091Z,5.90
2017-09-03T11:14:19.161Z,6.20
2017-09-03T11:16:46.841Z,3.03
2017-09-03T11:19:15.151Z,3.37
2017-09-03T11:21:45.544Z,5.93
2017-09-03T11:24:13.955Z,4.47
2017-09-03T11:26:41.553Z,5.43
2017-09-03T11:29:09.932Z,7.22
2017-09-03T11:31:37.701Z,8.80
2017-09-03T11:34:05.637Z,14.68
2017-09-03T11:36:33.276Z,12.95
2017-09-03T11:39:00.879Z,5.45
2017-09-03T11:41:28.586Z,4.68
2017-09-03T11:43:56.213Z,7.55
2017-09-03T11:46:23.803Z,5.45
2017-09-03T11:48:51.427Z,4.10
2017-09-03T11:51:19.091Z,5.18
2017-09-03T11:53:47.597Z,11.23
2017-09-03T11:56:15.252Z,11.63
2017-09-03T11:58:42.879Z,21.55
2017-09-03T12:01:10.512Z,47.08
2017-09-03T12:03:38.160Z,31.70
2017-09-03T12:06:05.773Z,31.35
2017-09-03T12:08:34.174Z,9.23
2017-09-03T12:11:02.644Z,14.93
2017-09-03T12:13:30.269Z,6.57
2017-09-03T12:15:57.894Z,10.00
2017-09-03T12:18:25.519Z,16.17
2017-09-03T12:20:53.137Z,13.88
2017-09-03T12:23:20.719Z,7.32
2017-09-03T12:25:48.358Z,8.40
2017-09-03T12:28:16.005Z,6.95
2017-09-03T12:30:43.662Z,5.03
2017-09-03T12:33:11.489Z,3.40
2017-09-03T12:35:39.145Z,6.85
2017-09-03T12:38:06.768Z,5.85
2017-09-03T12:40:34.411Z,4.80
2017-09-03T12:43:02.068Z,4.85
2017-09-03T12:45:30.597Z,3.90
2017-09-03T12:47:58.593Z,4.62
2017-09-03T12:50:26.226Z,3.45
2017-09-03T12:52:54.673Z,2.65
2017-09-03T12:55:22.281Z,2.67
2017-09-03T12:57:50.657Z,4.22
2017-09-03T13:00:19.107Z,2.58
2017-09-03T13:02:46.713Z,6.75
2017-09-03T13:05:14.271Z,3.25
2017-09-03T13:07:42.616Z,1.90
2017-09-03T13:10:11.124Z,4.22
2017-09-03T13:15:31.459Z,4.75
2017-09-03T13:17:59.860Z,2.30
2017-09-03T13:20:27.692Z,4.82
2017-09-03T13:22:55.305Z,4.15
2017-09-03T13:25:23.884Z,3.05
2017-09-03T13:27:51.548Z,3.92
2017-09-03T13:30:19.132Z,4.82
2017-09-03T13:32:46.666Z,4.45
2017-09-03T13:35:14.262Z,1.42
2017-09-03T13:37:41.865Z,5.35
2017-09-03T13:40:09.450Z,1.65
2017-09-03T13:42:37.076Z,1.67
2017-09-03T13:45:05.184Z,7.97
2017-09-03T13:47:32.864Z,2.35
2017-09-03T13:50:01.023Z,5.45
2017-09-03T13:52:28.636Z,2.17
2017-09-03T13:54:56.275Z,4.85
2017-09-03T13:57:23.996Z,5.97
2017-09-03T13:59:51.659Z,8.55
2017-09-03T14:02:19.326Z,6.18
2017-09-03T14:04:46.911Z,2.47
2017-09-03T14:07:14.537Z,2.37
2017-09-03T14:09:42.149Z,3.60
2017-09-03T14:12:09.727Z,7.40
2017-09-03T14:14:37.345Z,2.87
2017-09-03T14:17:04.900Z,4.30
2017-09-03T14:19:33.071Z,3.00
2017-09-03T14:22:00.632Z,2.47
2017-09-03T14:24:28.240Z,1.92
2017-09-03T14:26:55.828Z,2.45
2017-09-03T14:29:23.407Z,2.17
2017-09-03T14:31:51.014Z,3.15
2017-09-03T14:34:19.369Z,4.50
2017-09-03T14:36:46.969Z,9.05
2017-09-03T14:39:14.505Z,2.95
2017-09-03T14:41:42.058Z,5.10
2017-09-03T14:44:09.621Z,2.87
2017-09-03T14:46:37.144Z,2.58
2017-09-03T14:49:04.803Z,6.40
2017-09-03T14:51:32.391Z,2.87
2017-09-03T14:53:59.969Z,8.23
2017-09-03T14:56:27.533Z,3.87
2017-09-03T14:58:55.097Z,3.17
2017-09-03T15:01:22.665Z,2.75
2017-09-03T15:03:50.243Z,3.10
2017-09-03T15:06:17.864Z,4.70
2017-09-03T15:08:45.444Z,4.87
2017-09-03T15:11:13.972Z,8.98
2017-09-03T15:13:42.262Z,10.32
2017-09-03T15:16:09.881Z,16.73
2017-09-03T15:18:37.535Z,2.80
2017-09-03T15:21:05.108Z,11.57
2017-09-03T15:23:32.719Z,3.67
2017-09-03T15:26:00.327Z,11.52
2017-09-03T15:28:27.878Z,4.82
2017-09-03T15:30:55.468Z,10.85
2017-09-03T15:33:23.054Z,2.45
2017-09-03T15:35:50.563Z,4.55
2017-09-03T15:38:18.125Z,9.20
2017-09-03T15:40:46.347Z,4.75
2017-09-03T15:43:13.923Z,9.77
2017-09-03T15:45:41.501Z,7.45
2017-09-03T15:48:09.084Z,4.15
2017-09-03T15:50:37.379Z,8.27
2017-09-03T15:53:04.927Z,5.35
2017-09-03T15:55:32.463Z,5.43
2017-09-03T15:58:00.109Z,10.10
2017-09-03T16:00:27.628Z,3.75
2017-09-03T16:02:55.253Z,4.62
2017-09-03T16:05:22.840Z,5.00
2017-09-03T16:07:50.378Z,4.40
2017-09-03T16:10:17.945Z,3.15
2017-09-03T16:12:45.578Z,3.08
2017-09-03T16:15:13.146Z,2.33
2017-09-03T16:17:40.734Z,6.00
2017-09-03T16:20:08.362Z,2.40
2017-09-03T16:22:36.945Z,4.62
2017-09-03T16:25:04.604Z,4.60
2017-09-03T16:27:32.218Z,9.73
2017-09-03T16:29:59.768Z,7.55
2017-09-03T16:32:27.325Z,6.65
2017-09-03T16:34:54.922Z,2.45
2017-09-03T16:37:22.464Z,7.30
2017-09-03T16:39:50.035Z,5.40
2017-09-03T16:42:17.630Z,4.22
2017-09-03T16:44:45.236Z,4.65
2017-09-03T16:47:12.842Z,2.80
2017-09-03T16:49:40.412Z,3.37
2017-09-03T16:52:07.990Z,3.83
2017-09-03T16:54:35.571Z,8.35
2017-09-03T16:57:03.117Z,5.03
2017-09-03T16:59:30.673Z,2.53
2017-09-03T17:01:59.017Z,4.30
2017-09-03T17:04:26.596Z,3.12
2017-09-03T17:06:54.199Z,4.20
2017-09-03T17:09:21.799Z,14.15
2017-09-03T17:11:49.356Z,7.60
2017-09-03T17:14:16.924Z,2.50
2017-09-03T17:16:45.342Z,2.92
2017-09-03T17:19:13.023Z,6.78
2017-09-03T17:21:40.614Z,4.07
2017-09-03T17:24:08.259Z,4.28
2017-09-03T17:26:35.791Z,6.05
2017-09-03T17:29:03.420Z,3.40
2017-09-03T17:31:31.574Z,2.03
2017-09-03T17:33:59.695Z,3.50
2017-09-03T17:36:38.119Z,3.15
2017-09-03T17:39:05.724Z,7.97
2017-09-03T17:41:33.327Z,3.33
2017-09-03T17:44:10.952Z,9.38
2017-09-03T17:46:38.595Z,8.48
2017-09-03T17:49:06.180Z,6.78
2017-09-03T17:51:34.305Z,8.25
2017-09-03T17:54:02.192Z,2.95
2017-09-03T17:56:29.727Z,6.15
2017-09-03T17:58:57.411Z,3.75
2017-09-03T18:01:25.824Z,4.75
2017-09-03T18:03:54.144Z,2.45
2017-09-03T18:06:22.486Z,2.72
2017-09-03T18:08:50.096Z,6.20
2017-09-03T18:11:18.635Z,4.70
2017-09-03T18:13:47.655Z,3.70
2017-09-03T18:16:15.988Z,7.25
2017-09-03T18:18:43.600Z,6.53
2017-09-03T18:26:56.112Z,3.05
2017-09-03T18:29:29.200Z,4.00
2017-09-03T18:31:57.588Z,2.65
2017-09-03T18:34:25.184Z,4.00
2017-09-03T18:40:02.836Z,3.60
2017-09-03T18:42:48.316Z,2.75
2017-09-03T18:45:17.837Z,7.97
2017-09-03T18:47:46.936Z,7.97
2017-09-03T18:50:15.750Z,5.40
2017-09-03T18:52:45.908Z,7.40
2017-09-03T18:55:13.556Z,6.18
2017-09-03T18:57:57.126Z,6.53
2017-09-03T19:00:25.268Z,9.23
2017-09-03T19:02:55.142Z,7.10
2017-09-03T19:05:22.756Z,8.30
2017-09-03T19:07:50.470Z,4.87
2017-09-03T19:10:18.102Z,6.85
2017-09-03T19:12:45.631Z,11.35
2017-09-03T19:15:13.352Z,3.75
2017-09-03T19:17:40.996Z,6.10
2017-09-03T19:20:08.611Z,4.45
2017-09-03T19:22:36.302Z,4.97
2017-09-03T19:25:03.892Z,9.98
2017-09-03T19:27:32.051Z,3.53
2017-09-03T19:29:59.647Z,4.15
2017-09-03T19:32:28.187Z,3.90
2017-09-03T19:34:56.772Z,6.45
2017-09-03T19:37:26.995Z,5.35
2017-09-03T19:39:54.611Z,5.43
2017-09-03T19:42:22.995Z,7.53
2017-09-03T19:44:50.563Z,9.88
2017-09-03T19:47:19.184Z,4.82
2017-09-03T19:49:46.853Z,6.60
2017-09-03T19:52:14.459Z,6.57
2017-09-03T19:54:42.147Z,3.33
2017-09-03T19:57:09.716Z,6.37
2017-09-03T19:59:37.631Z,4.30
2017-09-03T20:02:05.213Z,4.28
2017-09-03T20:04:32.938Z,4.78
2017-09-03T20:07:00.578Z,7.93
2017-09-03T20:09:28.154Z,5.40
2017-09-03T20:11:55.709Z,4.32
2017-09-03T20:14:23.315Z,7.18
2017-09-03T20:16:50.912Z,5.82
2017-09-03T20:19:18.611Z,2.83
2017-09-03T20:21:46.231Z,4.87
2017-09-03T20:24:13.814Z,4.55
2017-09-03T20:26:45.534Z,7.10
2017-09-03T20:29:14.014Z,3.80
2017-09-03T20:31:42.399Z,7.40
2017-09-03T20:34:09.969Z,3.22
2017-09-03T20:36:38.179Z,5.80
2017-09-03T20:39:05.800Z,6.03
2017-09-03T20:41:33.920Z,3.60
2017-09-03T20:44:01.567Z,3.33
2017-09-03T20:46:29.111Z,3.20
2017-09-03T20:48:57.368Z,6.43
2017-09-03T20:51:25.154Z,3.85
2017-09-03T20:53:52.864Z,6.40
2017-09-03T20:56:20.627Z,12.10
2017-09-03T20:58:48.384Z,11.07
2017-09-03T21:01:16.120Z,9.40
2017-09-03T21:03:43.694Z,8.23
2017-09-03T21:06:11.279Z,9.38
2017-09-03T21:08:38.834Z,12.48
2017-09-03T21:11:06.332Z,9.40
2017-09-03T21:13:33.876Z,5.60
2017-09-03T21:16:01.465Z,9.05
2017-09-03T21:18:29.038Z,8.75
2017-09-03T21:20:56.607Z,7.85
2017-09-03T21:23:24.188Z,12.77
2017-09-03T21:25:51.751Z,6.18
2017-09-03T21:28:19.267Z,4.70
2017-09-03T21:30:46.818Z,4.30
2017-09-03T21:33:14.391Z,6.28
2017-09-03T21:35:41.949Z,10.60
2017-09-03T21:38:09.526Z,5.95
2017-09-03T21:40:37.092Z,7.30
2017-09-03T21:43:04.659Z,5.30
2017-09-03T21:45:32.195Z,3.75
2017-09-03T21:47:59.786Z,5.28
2017-09-03T21:50:27.349Z,4.18
2017-09-03T21:52:54.919Z,6.07
2017-09-03T21:55:22.527Z,11.88
2017-09-03T21:57:50.070Z,8.10
2017-09-03T22:00:17.631Z,6.45
2017-09-03T22:02:45.146Z,7.62
2017-09-03T22:05:12.662Z,4.10
2017-09-03T22:07:40.189Z,5.30
2017-09-03T22:10:07.696Z,12.32
2017-09-03T22:12:35.261Z,5.07
2017-09-03T22:15:02.752Z,10.27
2017-09-03T22:17:30.369Z,7.70
2017-09-03T22:19:57.895Z,5.03
2017-09-03T22:22:25.480Z,5.50
2017-09-03T22:24:53.122Z,6.90
2017-09-03T22:27:20.737Z,6.20
2017-09-03T22:29:48.315Z,5.65
2017-09-03T22:32:15.973Z,8.00
2017-09-03T22:34:43.580Z,10.55
2017-09-03T22:37:11.159Z,11.27
2017-09-03T22:39:38.823Z,7.70
2017-09-03T22:42:06.382Z,4.90
2017-09-03T22:44:33.993Z,11.12
2017-09-03T22:47:01.559Z,11.63
2017-09-03T22:49:29.102Z,7.32
2017-09-03T22:51:56.614Z,9.57
2017-09-03T22:54:24.175Z,5.47
2017-09-03T22:56:51.737Z,5.82
2017-09-03T22:59:19.292Z,6.65
2017-09-03T23:01:46.787Z,8.07
2017-09-03T23:04:14.313Z,6.03
2017-09-03T23:06:41.877Z,7.80
2017-09-03T23:09:09.441Z,5.30
2017-09-03T23:11:36.938Z,7.12
2017-09-03T23:14:04.539Z,6.85
2017-09-03T23:16:32.121Z,10.23
2017-09-03T23:18:59.667Z,6.65
2017-09-03T23:21:27.235Z,9.57
2017-09-03T23:23:54.801Z,5.72
2017-09-03T23:26:22.332Z,11.05
2017-09-03T23:28:49.898Z,12.95
2017-09-03T23:31:17.399Z,10.68
2017-09-03T23:33:44.958Z,7.25
2017-09-03T23:36:12.451Z,7.05
2017-09-03T23:38:39.999Z,9.23
2017-09-03T23:41:07.518Z,6.82
2017-09-03T23:43:35.014Z,7.28
2017-09-03T23:46:02.567Z,6.90
2017-09-03T23:48:30.124Z,5.43
2017-09-03T23:50:57.698Z,10.50
2017-09-03T23:53:25.305Z,5.70
2017-09-03T23:55:52.807Z,10.48
2017-09-03T23:58:20.358Z,7.05
